Time;durP1;ratioP1;P1;durP2;ratioP2;P2;SDS_P1;SDS_P2;PMS_P1;PMS_P2;Temp;Humidity;BMP_temperature;BMP_pressure;BME280_temperature;BME280_humidity;BME280_pressure;Samples;Min_cycle;Max_cycle;Signal;HPM_P1;HPM_P2
2023/03/13 00:00:20;;;;;;;18.45;8.38;;;;;;;9.39;100.00;100636.16;4995709;28;20037;-91
2023/03/13 00:02:46;;;;;;;18.55;8.35;;;;;;;8.91;100.00;100646.25;4998172;28;20061;-89
2023/03/13 00:05:13;;;;;;;22.45;8.98;;;;;;;8.89;100.00;100642.91;5000353;28;20042;-90
2023/03/13 00:07:39;;;;;;;22.08;8.48;;;;;;;9.09;100.00;100639.16;4979890;28;20121;-91
2023/03/13 00:10:05;;;;;;;22.92;9.07;;;;;;;9.19;100.00;100637.28;4996266;28;20105;-91
2023/03/13 00:12:31;;;;;;;24.83;8.65;;;;;;;9.13;100.00;100630.78;4978959;28;20185;-91
2023/03/13 00:14:58;;;;;;;21.50;8.68;;;;;;;9.14;100.00;100626.34;4978431;28;20497;-90
2023/03/13 00:17:23;;;;;;;15.20;8.82;;;;;;;9.02;100.00;100624.88;4995972;28;20033;-88
2023/03/13 00:19:49;;;;;;;20.40;9.52;;;;;;;8.86;100.00;100632.63;4979429;28;20038;-87
2023/03/13 00:22:15;;;;;;;24.80;8.65;;;;;;;8.74;100.00;100630.22;5000340;28;20035;-89
2023/03/13 00:24:40;;;;;;;14.38;8.05;;;;;;;8.95;100.00;100640.50;4995500;28;20552;-89
2023/03/13 00:27:08;;;;;;;22.88;8.85;;;;;;;8.95;100.00;100631.75;4995812;28;20122;-89
2023/03/13 00:29:34;;;;;;;17.58;8.70;;;;;;;8.32;100.00;100650.13;4996203;28;20066;-90
2023/03/13 00:32:00;;;;;;;20.48;8.38;;;;;;;8.25;100.00;100646.41;4977888;28;20042;-88
2023/03/13 00:34:26;;;;;;;17.05;8.43;;;;;;;8.14;100.00;100634.19;4996044;28;20050;-88
2023/03/13 00:36:53;;;;;;;19.73;8.93;;;;;;;8.03;100.00;100644.91;4978532;28;20077;-86
2023/03/13 00:39:19;;;;;;;17.40;9.45;;;;;;;7.94;100.00;100647.56;4998793;28;20026;-88
2023/03/13 00:41:45;;;;;;;26.00;9.48;;;;;;;7.74;100.00;100644.97;5003437;28;20046;-88
2023/03/13 00:44:11;;;;;;;34.58;10.10;;;;;;;7.55;100.00;100645.00;5002921;28;20408;-87
2023/03/13 00:46:36;;;;;;;17.77;9.85;;;;;;;7.47;100.00;100647.47;5002672;28;20031;-88
2023/03/13 00:49:02;;;;;;;25.15;9.80;;;;;;;7.43;100.00;100640.81;5004217;28;20401;-88
2023/03/13 00:51:28;;;;;;;24.95;10.07;;;;;;;7.45;100.00;100633.63;4985588;28;20038;-86
2023/03/13 00:53:55;;;;;;;30.30;9.52;;;;;;;7.42;100.00;100630.44;4987078;28;20061;-87
2023/03/13 00:56:21;;;;;;;25.45;11.07;;;;;;;7.39;100.00;100626.25;5008460;28;20035;-89
2023/03/13 00:58:49;;;;;;;19.52;10.15;;;;;;;7.39;100.00;100633.34;4978450;28;20504;-88
2023/03/13 01:01:23;;;;;;;21.98;10.80;;;;;;;7.38;100.00;100624.59;4996348;28;20034;-88
2023/03/13 01:03:52;;;;;;;22.75;10.30;;;;;;;7.52;100.00;100618.91;4995633;28;20034;-89
2023/03/13 01:06:20;;;;;;;22.33;10.30;;;;;;;7.61;100.00;100628.59;4977847;28;20448;-90
2023/03/13 01:08:47;;;;;;;23.80;10.77;;;;;;;7.59;100.00;100635.00;4977166;28;20046;-89
2023/03/13 01:11:19;;;;;;;24.48;10.57;;;;;;;7.34;100.00;100628.47;4994625;28;20034;-88
2023/03/13 01:13:47;;;;;;;30.25;11.45;;;;;;;7.55;100.00;100628.34;4977002;28;20387;-90
2023/03/13 01:16:18;;;;;;;23.42;11.02;;;;;;;7.59;100.00;100635.00;4977325;28;20026;-87
2023/03/13 01:18:47;;;;;;;21.58;10.25;;;;;;;7.84;100.00;100628.28;4977656;28;20481;-90
2023/03/13 01:21:13;;;;;;;25.88;12.07;;;;;;;7.78;100.00;100633.16;4989374;28;20150;-86
2023/03/13 01:23:41;;;;;;;23.00;9.85;;;;;;;7.52;100.00;100629.47;4983267;28;20039;-88
2023/03/13 01:26:08;;;;;;;19.90;8.95;;;;;;;7.38;100.00;100627.22;4962063;28;20035;-86
2023/03/13 01:28:36;;;;;;;19.98;10.00;;;;;;;7.56;100.00;100633.47;4974494;28;20902;-85
2023/03/13 01:31:13;;;;;;;27.55;11.68;;;;;;;7.25;100.00;100631.94;4974167;28;20167;-86
2023/03/13 01:33:40;;;;;;;23.55;10.43;;;;;;;7.20;100.00;100629.72;4957679;28;20035;-86
2023/03/13 01:36:07;;;;;;;19.52;9.60;;;;;;;7.45;100.00;100623.06;4975605;28;20027;-87
2023/03/13 01:38:33;;;;;;;30.80;11.20;;;;;;;7.52;100.00;100621.53;4952927;28;20046;-86
2023/03/13 10:52:45;;;;;;;14.47;6.03;;;;;;;14.84;100.00;100718.44;6139416;23;1284494;-83
2023/03/13 10:55:15;;;;;;;14.45;6.15;;;;;;;14.78;100.00;100721.84;6192108;23;20032;-82
2023/03/13 10:57:43;;;;;;;11.90;5.88;;;;;;;14.64;100.00;100704.81;6165406;23;20016;-82
2023/03/13 11:00:30;;;;;;;12.73;5.53;;;;;;;14.99;100.00;100714.72;6194701;23;20013;-84
2023/03/13 11:02:55;;;;;;;12.30;5.53;;;;;;;16.06;100.00;100722.91;6194442;23;20012;-81
2023/03/13 11:05:43;;;;;;;14.73;6.47;;;;;;;16.31;100.00;100724.13;6167832;23;20344;-82
2023/03/13 11:08:18;;;;;;;17.50;5.97;;;;;;;16.41;100.00;100721.94;6193503;23;20093;-86
2023/03/13 11:11:02;;;;;;;12.50;6.10;;;;;;;15.41;100.00;100714.00;6192673;23;20016;-81
2023/03/13 11:13:33;;;;;;;13.23;5.78;;;;;;;15.97;100.00;100706.97;6193639;23;20051;-82
2023/03/13 11:16:06;;;;;;;11.45;5.68;;;;;;;16.40;100.00;100706.94;6195258;23;20440;-83
2023/03/13 11:18:57;;;;;;;25.00;6.18;;;;;;;16.53;100.00;100690.97;6194418;23;20009;-82
2023/03/13 11:21:33;;;;;;;13.23;5.15;;;;;;;16.20;100.00;100690.72;6193862;23;20009;-83
2023/03/13 11:24:06;;;;;;;13.90;5.75;;;;;;;15.73;100.00;100682.50;6194141;23;20009;-83
2023/03/13 11:26:51;;;;;;;11.38;5.50;;;;;;;16.26;100.00;100689.13;6167627;23;20013;-84
2023/03/13 11:29:28;;;;;;;11.77;5.85;;;;;;;16.39;100.00;100690.03;6194218;23;20044;-85
2023/03/13 11:31:59;;;;;;;15.55;6.97;;;;;;;16.78;100.00;100683.28;6193988;23;20093;-85
2023/03/13 11:34:58;;;;;;;14.38;5.70;;;;;;;17.39;100.00;100666.22;6194244;23;20436;-82
2023/03/13 11:37:27;;;;;;;12.85;5.20;;;;;;;18.83;92.56;100678.78;6194834;23;20494;-81
2023/03/13 11:40:05;;;;;;;11.25;5.90;;;;;;;20.05;82.87;100671.25;6190044;23;20005;-82
2023/03/13 11:43:00;;;;;;;10.88;5.32;;;;;;;19.22;81.45;100663.53;6188935;23;20056;-79
2023/03/13 11:45:44;;;;;;;8.13;4.88;;;;;;;18.88;86.54;100678.97;6192369;23;20068;-80
2023/03/13 11:48:50;;;;;;;7.60;5.20;;;;;;;20.35;80.92;100686.75;6194345;23;20021;-79
2023/03/13 11:51:40;;;;;;;8.98;5.60;;;;;;;21.29;73.66;100675.53;6209473;23;20008;-81
2023/03/13 11:54:27;;;;;;;9.68;5.15;;;;;;;20.44;77.04;100669.28;6211236;23;19997;-81
2023/03/13 11:56:58;;;;;;;11.57;5.45;;;;;;;19.32;80.45;100659.31;6204458;23;20009;-84
2023/03/13 11:59:40;;;;;;;10.75;5.10;;;;;;;19.37;81.17;100643.38;6193396;23;20015;-80
2023/03/13 12:02:40;;;;;;;14.70;5.90;;;;;;;19.40;80.47;100644.81;6199942;23;20061;-85
2023/03/13 12:05:10;;;;;;;9.45;5.90;;;;;;;19.02;82.39;100637.56;6188900;23;20088;-89
2023/03/13 12:07:46;;;;;;;14.25;6.95;;;;;;;18.80;84.64;100612.06;6151160;23;20013;-89
2023/03/13 12:10:20;;;;;;;10.30;6.47;;;;;;;18.81;86.53;100611.03;6189476;23;20005;-86
2023/03/13 12:12:53;;;;;;;13.98;6.70;;;;;;;18.96;86.24;100605.38;6189855;23;20333;-84
2023/03/13 12:15:42;;;;;;;11.60;6.38;;;;;;;17.68;94.63;100611.44;6189084;23;20076;-88
2023/03/13 12:18:29;;;;;;;14.55;6.80;;;;;;;16.45;100.00;100618.88;6189354;23;20005;-86
2023/03/13 12:21:29;;;;;;;11.55;6.72;;;;;;;15.81;100.00;100605.69;6189173;23;20016;-91
2023/03/13 12:24:34;;;;;;;13.90;7.22;;;;;;;15.38;100.00;100585.34;6195298;23;20013;-88
2023/03/13 12:27:32;;;;;;;14.38;5.85;;;;;;;15.07;100.00;100575.00;6195893;23;20017;-90
2023/03/13 12:30:06;;;;;;;11.15;5.88;;;;;;;15.27;100.00;100564.53;6172227;23;20064;-89
2023/03/13 12:32:43;;;;;;;13.50;6.57;;;;;;;15.20;100.00;100569.78;6193640;23;20088;-90
2023/03/13 12:35:11;;;;;;;16.90;7.07;;;;;;;15.34;100.00;100568.09;6189022;23;20240;-86
2023/03/13 12:37:37;;;;;;;11.07;6.70;;;;;;;15.02;100.00;100546.19;6189772;23;20013;-90
2023/03/13 12:40:15;;;;;;;16.75;7.20;;;;;;;15.02;100.00;100546.19;6188815;23;20019;-87
2023/03/13 12:42:43;;;;;;;17.58;7.55;;;;;;;14.93;100.00;100542.00;6185363;23;20024;-87
2023/03/13 12:45:18;;;;;;;16.63;7.93;;;;;;;14.80;100.00;100541.88;6187954;23;20437;-87
2023/03/13 12:48:02;;;;;;;17.45;7.97;;;;;;;14.77;100.00;100554.75;6187154;23;20036;-86
2023/03/13 12:50:39;;;;;;;19.20;8.82;;;;;;;14.80;100.00;100541.88;6159887;23;20349;-88
2023/03/13 12:53:04;;;;;;;16.23;7.57;;;;;;;15.24;100.00;100532.88;6186859;23;20017;-89
2023/03/13 12:56:12;;;;;;;15.85;7.70;;;;;;;15.12;100.00;100535.22;6189106;23;20471;-85
2023/03/13 12:59:02;;;;;;;17.35;7.93;;;;;;;15.18;100.00;100522.97;6174124;23;20040;-88
2023/03/13 13:01:28;;;;;;;11.68;7.32;;;;;;;15.22;100.00;100509.00;6188638;23;20009;-85
2023/03/13 13:03:59;;;;;;;14.90;7.20;;;;;;;15.35;100.00;100510.97;6188405;23;20013;-87
2023/03/13 13:06:29;;;;;;;14.52;8.10;;;;;;;15.01;100.00;100511.72;6185311;23;20015;-88
2023/03/13 13:09:16;;;;;;;17.75;7.60;;;;;;;15.12;100.00;100507.69;6184699;23;20417;-87
2023/03/13 13:11:46;;;;;;;15.68;8.18;;;;;;;15.22;100.00;100502.84;6186621;23;20021;-87
2023/03/13 13:14:17;;;;;;;16.20;8.07;;;;;;;15.25;100.00;100507.78;6186693;23;20025;-88
2023/03/13 13:16:49;;;;;;;18.00;9.60;;;;;;;15.04;100.00;100500.66;6189929;23;20013;-89
2023/03/13 13:19:24;;;;;;;14.70;8.68;;;;;;;14.93;100.00;100499.31;6191716;23;20012;-84
2023/03/13 13:22:29;;;;;;;17.10;8.02;;;;;;;15.07;100.00;100497.59;6190865;23;20040;-84
2023/03/13 13:24:58;;;;;;;;;;;;;;;15.13;100.00;100490.66;6184417;23;20013;-85
2023/03/13 13:27:35;;;;;;;14.48;8.13;;;;;;;15.14;100.00;100478.97;6184347;23;19912;-85
2023/03/13 13:30:26;;;;;;;14.35;8.10;;;;;;;14.92;100.00;100488.81;6185100;23;20070;-88
2023/03/13 13:33:16;;;;;;;13.35;7.80;;;;;;;15.08;100.00;100490.41;6184689;23;20020;-82
2023/03/13 13:35:41;;;;;;;21.02;8.55;;;;;;;14.90;100.00;100483.69;6184004;23;20024;-85
2023/03/13 13:38:39;;;;;;;19.70;9.20;;;;;;;14.99;100.00;100492.38;6186660;23;20060;-86
2023/03/13 13:41:24;;;;;;;19.60;8.63;;;;;;;15.16;100.00;100506.28;6187582;23;20017;-90
2023/03/13 13:44:23;;;;;;;21.25;8.07;;;;;;;15.18;100.00;100504.28;6187724;23;20009;-85
2023/03/13 13:46:49;;;;;;;17.00;8.95;;;;;;;15.16;100.00;100490.28;6186799;23;20036;-85
2023/03/13 13:49:14;;;;;;;14.43;7.85;;;;;;;15.22;100.00;100497.50;6186823;23;20081;-81
2023/03/13 13:51:41;;;;;;;16.00;7.85;;;;;;;15.46;98.89;100491.75;6184952;23;20013;-83
2023/03/13 13:54:46;;;;;;;15.15;8.82;;;;;;;15.16;100.00;100487.59;6186952;23;20105;-83
2023/03/13 13:57:39;;;;;;;18.90;8.90;;;;;;;15.09;100.00;100487.53;6190246;23;20062;-85
2023/03/13 14:00:25;;;;;;;14.95;9.27;;;;;;;14.82;100.00;100480.31;6186479;23;20009;-85
2023/03/13 14:02:52;;;;;;;18.45;9.82;;;;;;;14.86;100.00;100471.72;6187854;23;20556;-92
2023/03/13 14:05:29;;;;;;;13.85;8.15;;;;;;;15.08;100.00;100480.53;6188180;23;20009;-81
2023/03/13 14:08:02;;;;;;;18.08;9.25;;;;;;;14.99;100.00;100476.38;6201345;23;20016;-85
2023/03/13 14:10:38;;;;;;;19.63;8.20;;;;;;;15.12;100.00;100480.97;6217213;23;20006;-87
2023/03/13 14:13:13;;;;;;;21.02;9.88;;;;;;;15.04;100.00;100475.78;6217342;23;20005;-89
2023/03/13 14:15:51;;;;;;;19.02;9.63;;;;;;;15.09;100.00;100476.03;6219428;23;20012;-90
2023/03/13 14:18:25;;;;;;;24.40;9.50;;;;;;;14.90;100.00;100473.00;6220238;23;20015;-87
2023/03/13 14:20:54;;;;;;;15.27;8.68;;;;;;;14.92;100.00;100465.63;6218715;23;20016;-86
2023/03/13 14:23:43;;;;;;;17.63;10.38;;;;;;;15.01;100.00;100464.47;6217961;23;20032;-89
2023/03/13 14:26:11;;;;;;;17.95;9.15;;;;;;;15.30;100.00;100457.31;6190222;23;20016;-87
2023/03/13 14:28:42;;;;;;;14.95;9.18;;;;;;;15.33;100.00;100462.28;6216640;23;20005;-91
2023/03/13 14:31:20;;;;;;;18.08;9.85;;;;;;;15.01;100.00;100453.78;6190043;23;20016;-89
2023/03/13 14:33:45;;;;;;;16.45;9.20;;;;;;;15.10;100.00;100448.34;6217024;23;20020;-83
2023/03/13 14:36:11;;;;;;;21.38;9.85;;;;;;;15.35;100.00;100439.69;6217439;23;20005;-88
2023/03/13 14:38:49;;;;;;;19.20;10.20;;;;;;;15.06;100.00;100433.72;6218384;23;20021;-86
2023/03/13 14:41:31;;;;;;;21.23;9.85;;;;;;;15.15;100.00;100427.22;6166220;23;20351;-87
2023/03/13 14:44:33;;;;;;;15.50;9.77;;;;;;;15.05;100.00;100432.09;6217431;23;20020;-89
2023/03/13 14:47:06;;;;;;;18.33;9.00;;;;;;;15.13;100.00;100434.59;6191149;23;20016;-86
2023/03/13 14:49:38;;;;;;;15.77;8.75;;;;;;;15.33;98.83;100431.06;6223728;23;20522;-87
2023/03/13 14:52:25;;;;;;;20.13;8.35;;;;;;;15.26;97.79;100434.69;6227464;23;20013;-82
2023/03/13 14:54:56;;;;;;;20.17;9.18;;;;;;;15.16;98.39;100427.03;6225271;23;20039;-83
2023/03/13 14:57:25;;;;;;;15.95;8.98;;;;;;;15.35;96.20;100417.50;6225175;23;20016;-82
2023/03/13 14:59:52;;;;;;;19.23;9.07;;;;;;;15.24;96.90;100416.22;6224356;23;20086;-83
2023/03/13 15:02:26;;;;;;;16.38;9.43;;;;;;;15.19;98.05;100423.13;6226730;23;20013;-82
2023/03/13 15:05:03;;;;;;;19.92;9.32;;;;;;;15.18;97.45;100413.50;6174841;23;20009;-82
2023/03/13 15:07:52;;;;;;;17.73;9.63;;;;;;;14.94;99.52;100407.56;6225433;23;20100;-82
2023/03/13 15:10:17;;;;;;;15.63;9.10;;;;;;;15.41;97.34;100406.06;6228735;22;20076;-80
2023/03/13 15:12:49;;;;;;;20.58;10.15;;;;;;;15.20;98.34;100400.75;6232139;23;20017;-82
2023/03/13 15:15:15;;;;;;;19.85;10.15;;;;;;;15.14;100.00;100393.53;6261665;23;20035;-83
2023/03/13 15:17:48;;;;;;;16.38;9.27;;;;;;;15.34;97.81;100400.69;6263170;23;20019;-82
2023/03/13 15:20:15;;;;;;;17.77;9.32;;;;;;;15.45;95.82;100404.63;6272966;23;20004;-83
2023/03/13 15:22:44;;;;;;;13.52;8.55;;;;;;;15.11;99.55;100394.75;6243214;23;20012;-83
2023/03/13 15:25:16;;;;;;;17.33;9.57;;;;;;;15.08;100.00;100391.66;6269468;23;20008;-82
2023/03/13 15:27:42;;;;;;;22.00;10.27;;;;;;;15.22;99.00;100388.03;6268879;23;20047;-82
2023/03/13 15:30:21;;;;;;;17.08;8.93;;;;;;;15.39;96.30;100386.72;6242617;23;20008;-82
2023/03/13 15:35:34;;;;;;;18.58;9.10;;;;;;;15.34;96.38;100383.81;6230181;23;20465;-84
2023/03/13 15:38:28;;;;;;;20.05;9.48;;;;;;;15.54;94.31;100379.44;6220758;23;20016;-88
2023/03/13 15:40:54;;;;;;;28.85;9.82;;;;;;;15.60;93.01;100378.66;6248968;23;20012;-86
2023/03/13 15:43:20;;;;;;;25.67;9.27;;;;;;;15.41;95.37;100379.34;6249636;23;20081;-86
2023/03/13 15:45:50;;;;;;;17.58;9.93;;;;;;;15.38;95.15;100371.69;6248483;23;20000;-83
2023/03/13 15:48:18;;;;;;;18.45;9.48;;;;;;;14.97;99.18;100369.81;6248391;23;20027;-85
2023/03/13 15:50:45;;;;;;;21.33;10.02;;;;;;;15.25;99.11;100371.63;6249382;23;20395;-86
2023/03/13 15:53:26;;;;;;;23.33;9.02;;;;;;;15.16;98.99;100364.78;6222756;23;20015;-85
2023/03/13 15:55:54;;;;;;;20.08;9.93;;;;;;;15.25;98.05;100364.44;6250776;23;20012;-89
2023/03/13 15:58:20;;;;;;;16.77;9.45;;;;;;;15.30;96.94;100369.22;6250921;23;20008;-86
2023/03/13 16:00:47;;;;;;;17.33;9.68;;;;;;;15.39;95.37;100370.69;6248673;23;20458;-86
2023/03/13 16:03:26;;;;;;;20.02;9.85;;;;;;;15.41;95.74;100368.66;6249328;23;20004;-84
2023/03/13 16:05:53;;;;;;;12.68;8.63;;;;;;;15.28;96.71;100361.38;6248361;23;20022;-86
2023/03/13 16:08:24;;;;;;;17.33;9.50;;;;;;;15.22;98.48;100364.00;6248512;23;20016;-88
2023/03/13 16:10:50;;;;;;;16.35;9.60;;;;;;;15.20;98.43;100366.88;6224889;23;20372;-83
2023/03/13 16:13:16;;;;;;;20.00;10.27;;;;;;;15.08;100.00;100368.44;6223316;23;20016;-86
2023/03/13 16:15:42;;;;;;;24.38;10.07;;;;;;;15.22;98.79;100364.00;6248064;23;20035;-85
2023/03/13 16:18:16;;;;;;;17.52;10.10;;;;;;;15.26;97.28;100360.75;6248073;23;20032;-87
2023/03/13 16:20:44;;;;;;;21.50;9.98;;;;;;;15.24;97.25;100351.31;6249205;23;20008;-85
2023/03/13 16:23:10;;;;;;;23.48;10.00;;;;;;;14.95;98.77;100352.31;6249352;23;20474;-84
2023/03/13 16:25:36;;;;;;;28.75;11.25;;;;;;;14.86;98.00;100349.00;6248881;23;20008;-88
2023/03/13 16:28:02;;;;;;;17.20;10.05;;;;;;;14.78;98.95;100340.31;6250160;23;20039;-87
2023/03/13 16:30:32;;;;;;;20.65;9.93;;;;;;;14.98;97.40;100342.09;6249111;23;20015;-86
2023/03/13 16:32:58;;;;;;;17.38;8.82;;;;;;;15.07;96.90;100348.13;6223016;23;20431;-86
2023/03/13 16:35:26;;;;;;;18.05;9.55;;;;;;;14.93;97.59;100333.84;6250115;23;20087;-85
2023/03/13 16:37:53;;;;;;;15.98;9.73;;;;;;;14.77;100.00;100323.47;6222815;23;20023;-88
2023/03/13 16:40:22;;;;;;;23.50;9.88;;;;;;;14.74;99.38;100317.72;6222039;23;20000;-89
2023/03/13 16:42:47;;;;;;;16.77;9.25;;;;;;;14.77;99.84;100312.81;6252522;23;20007;-86
2023/03/13 16:45:13;;;;;;;17.95;10.07;;;;;;;14.91;95.67;100308.41;6252343;23;20012;-86
2023/03/13 16:47:40;;;;;;;17.27;9.88;;;;;;;15.06;94.62;100308.25;6224670;23;20115;-86
2023/03/13 16:50:30;;;;;;;21.88;10.60;;;;;;;15.07;94.77;100315.25;6227045;23;20019;-88
2023/03/13 16:52:55;;;;;;;18.10;10.13;;;;;;;14.99;96.16;100317.06;6254854;23;20023;-86
2023/03/13 16:55:26;;;;;;;18.63;9.73;;;;;;;14.82;96.94;100304.19;6256874;23;20012;-86
2023/03/13 16:57:56;;;;;;;18.58;10.05;;;;;;;14.84;97.17;100318.19;6255091;23;20455;-85
2023/03/13 17:00:24;;;;;;;18.13;10.35;;;;;;;14.75;98.59;100314.81;6253612;23;20012;-88
2023/03/13 17:02:50;;;;;;;19.40;10.02;;;;;;;14.84;98.10;100313.69;6248293;23;20036;-87
2023/03/13 17:05:16;;;;;;;19.45;10.50;;;;;;;14.94;96.59;100308.00;6248202;23;20015;-89
2023/03/13 17:07:44;;;;;;;17.30;9.75;;;;;;;14.76;97.87;100300.47;6247977;23;20086;-90
2023/03/13 17:10:16;;;;;;;20.02;9.80;;;;;;;14.80;96.78;100296.41;6221642;23;20368;-88
2023/03/13 17:12:42;;;;;;;20.42;9.88;;;;;;;14.82;97.73;100299.69;6248277;23;20469;-89
2023/03/13 17:15:09;;;;;;;17.50;10.02;;;;;;;14.82;96.65;100301.53;6222058;23;20012;-89
2023/03/13 17:17:35;;;;;;;19.10;10.88;;;;;;;14.53;98.76;100294.56;6249471;23;20393;-88
2023/03/13 17:20:01;;;;;;;17.05;10.27;;;;;;;14.72;96.46;100298.38;6251186;23;20011;-89
2023/03/13 17:22:26;;;;;;;23.25;10.43;;;;;;;14.78;96.30;100293.09;6250401;23;20091;-88
2023/03/13 17:24:52;;;;;;;22.65;11.27;;;;;;;14.54;97.73;100295.38;6223754;23;20043;-91
2023/03/13 17:27:20;;;;;;;28.10;11.13;;;;;;;14.85;95.40;100307.31;6248605;23;20136;-91
2023/03/13 17:29:46;;;;;;;23.13;11.68;;;;;;;14.80;95.13;100296.41;6248283;23;20015;-92
2023/03/13 17:32:13;;;;;;;17.05;10.27;;;;;;;14.63;97.43;100289.72;6251887;23;20000;-90
2023/03/13 17:34:39;;;;;;;19.85;11.68;;;;;;;14.70;96.06;100284.44;6250453;23;20023;-89
2023/03/13 17:37:19;;;;;;;22.77;11.25;;;;;;;14.75;94.83;100282.81;6196892;23;20012;-89
2023/03/13 17:39:51;;;;;;;21.83;11.65;;;;;;;14.82;94.18;100283.69;6248032;23;20008;-91
2023/03/13 17:42:17;;;;;;;24.25;11.30;;;;;;;14.97;93.84;100280.91;6198655;23;20058;-90
2023/03/13 17:44:43;;;;;;;18.00;10.75;;;;;;;14.88;93.41;100276.78;6226105;23;20004;-94
2023/03/13 17:47:15;;;;;;;24.00;11.25;;;;;;;14.78;94.62;100279.75;6252432;23;20088;-89
2023/03/13 17:49:41;;;;;;;;;;;;;;;14.73;95.00;100274.19;6249776;23;20008;-92
2023/03/13 17:52:12;;;;;;;18.10;11.10;;;;;;;14.68;95.69;100271.28;6246540;22;19918;-91
2023/03/13 17:54:40;;;;;;;26.27;11.20;;;;;;;14.59;96.38;100266.28;6223881;23;20012;-88
2023/03/13 17:57:26;;;;;;;24.55;11.63;;;;;;;14.82;94.88;100257.00;6251300;23;20016;-89
2023/03/13 17:59:57;;;;;;;19.67;11.38;;;;;;;14.50;96.90;100252.28;6251703;23;20459;-90
2023/03/13 18:02:22;;;;;;;30.95;11.70;;;;;;;14.52;97.88;100254.78;6226263;23;20008;-90
2023/03/13 18:04:48;;;;;;;21.35;12.07;;;;;;;14.56;97.90;100250.66;6254416;23;20054;-88
2023/03/13 18:07:26;;;;;;;16.83;10.75;;;;;;;14.78;95.62;100247.75;6253327;23;20039;-91
2023/03/13 18:09:54;;;;;;;22.95;11.30;;;;;;;14.64;96.96;100243.38;6223760;23;20094;-89
2023/03/13 18:12:19;;;;;;;21.27;11.45;;;;;;;14.56;98.07;100246.16;6197525;23;20007;-89
2023/03/13 18:15:04;;;;;;;20.33;12.02;;;;;;;14.61;97.73;100249.09;6253378;23;20039;-88
2023/03/13 18:17:30;;;;;;;30.05;12.10;;;;;;;14.55;98.21;100243.72;6255075;23;20089;-87
2023/03/13 18:19:55;;;;;;;18.48;11.15;;;;;;;14.65;98.00;100242.31;6250668;23;20008;-88
2023/03/13 18:22:21;;;;;;;27.95;11.95;;;;;;;14.68;97.71;100244.59;6252748;23;20013;-89
2023/03/13 18:24:47;;;;;;;26.25;12.40;;;;;;;14.69;98.29;100230.25;6250109;23;20455;-90
2023/03/13 18:27:15;;;;;;;23.88;12.60;;;;;;;14.44;100.00;100232.56;6249220;23;20020;-88
2023/03/13 18:29:41;;;;;;;21.23;11.82;;;;;;;14.57;100.00;100231.81;6220960;23;20000;-89
2023/03/13 18:32:11;;;;;;;29.00;12.27;;;;;;;14.44;100.00;100231.72;6253925;23;20022;-89
2023/03/13 18:34:42;;;;;;;34.80;11.45;;;;;;;14.46;100.00;100219.00;6234027;23;20008;-87
2023/03/13 18:37:20;;;;;;;;;;;;;;;14.42;100.00;100223.09;6230623;23;20047;-88
2023/03/13 18:39:54;;;;;;;27.90;14.18;;;;;;;14.45;100.00;100223.53;6236821;22;19939;-92
2023/03/13 18:42:41;;;;;;;26.75;15.02;;;;;;;14.35;100.00;100222.22;6255882;23;20031;-90
2023/03/13 18:45:15;;;;;;;33.67;14.55;;;;;;;14.31;100.00;100211.09;6263444;23;20012;-92
2023/03/13 18:47:40;;;;;;;27.58;14.85;;;;;;;14.35;100.00;100214.22;6251481;23;20055;-90
2023/03/13 18:50:23;;;;;;;40.53;15.15;;;;;;;14.39;100.00;100220.81;6223518;23;20007;-90
2023/03/13 18:52:56;;;;;;;25.15;14.18;;;;;;;14.50;100.00;100198.94;6262644;23;20084;-89
2023/03/13 18:55:29;;;;;;;28.73;15.40;;;;;;;14.57;100.00;100186.47;6257530;23;20018;-88
2023/03/13 18:57:54;;;;;;;;;;;;;;;14.49;100.00;100192.78;6225660;23;20048;-90
2023/03/13 19:00:23;;;;;;;24.33;13.85;;;;;;;14.48;100.00;100187.66;6258000;23;19911;-90
2023/03/13 19:02:49;;;;;;;23.83;13.80;;;;;;;14.28;100.00;100197.34;6250199;23;20039;-89
2023/03/13 19:05:15;;;;;;;21.27;13.65;;;;;;;14.26;100.00;100186.84;6224672;23;20008;-91
2023/03/13 19:07:41;;;;;;;25.33;14.32;;;;;;;14.28;100.00;100170.69;6224144;23;20098;-87
2023/03/13 19:10:25;;;;;;;22.25;14.15;;;;;;;14.29;100.00;100183.78;6251039;23;20476;-90
2023/03/13 19:12:52;;;;;;;28.27;14.00;;;;;;;14.20;100.00;100181.47;6223462;23;20313;-91
2023/03/13 19:15:20;;;;;;;48.45;16.02;;;;;;;13.96;100.00;100167.56;6250359;23;20012;-89
2023/03/13 19:17:46;;;;;;;33.50;16.10;;;;;;;14.11;100.00;100171.97;6251208;23;20015;-89
2023/03/13 19:20:22;;;;;;;30.23;17.23;;;;;;;13.98;100.00;100168.19;6250571;23;20012;-89
2023/03/13 19:22:47;;;;;;;42.97;21.15;;;;;;;13.75;100.00;100156.94;6248650;23;20012;-87
2023/03/13 19:25:16;;;;;;;31.77;18.17;;;;;;;13.70;100.00;100143.34;6221926;23;20391;-88
2023/03/13 19:27:47;;;;;;;30.67;16.73;;;;;;;13.97;100.00;100141.75;6200951;23;20332;-88
2023/03/13 19:30:21;;;;;;;28.02;16.05;;;;;;;14.24;100.00;100135.59;6247933;23;20012;-92
2023/03/13 19:32:47;;;;;;;28.27;16.05;;;;;;;14.09;100.00;100131.34;6221036;23;20138;-87
2023/03/13 19:35:17;;;;;;;27.80;16.60;;;;;;;14.20;100.00;100128.16;6221083;23;20016;-90
2023/03/13 19:37:46;;;;;;;27.17;16.63;;;;;;;14.25;100.00;100128.41;6248428;23;20448;-90
2023/03/13 19:40:27;;;;;;;29.90;16.55;;;;;;;14.15;100.00;100130.59;6247881;23;20070;-88
2023/03/13 19:42:53;;;;;;;28.77;16.05;;;;;;;14.38;100.00;100129.31;6251228;23;20000;-89
2023/03/13 19:45:20;;;;;;;32.83;17.23;;;;;;;14.40;100.00;100129.16;6250413;23;20055;-90
2023/03/13 19:47:50;;;;;;;26.55;15.77;;;;;;;14.42;100.00;100119.09;6198212;23;20016;-90
2023/03/13 19:50:21;;;;;;;29.35;15.50;;;;;;;14.26;100.00;100127.38;6224656;23;20010;-88
2023/03/13 19:52:47;;;;;;;23.93;14.40;;;;;;;14.27;100.00;100123.69;6198703;23;20015;-90
2023/03/13 19:55:13;;;;;;;25.50;15.85;;;;;;;14.14;100.00;100128.94;6222787;23;20008;-90
2023/03/13 19:57:39;;;;;;;27.55;16.40;;;;;;;14.06;100.00;100126.41;6222995;23;20004;-90
2023/03/13 20:00:08;;;;;;;32.08;16.75;;;;;;;14.01;100.00;100116.34;6230127;23;20016;-91
2023/03/13 20:02:37;;;;;;;26.60;15.25;;;;;;;14.13;100.00;100105.97;6224562;23;20111;-89
2023/03/13 20:05:03;;;;;;;25.15;15.07;;;;;;;13.99;100.00;100105.88;6253264;23;20012;-90
2023/03/13 20:07:29;;;;;;;35.13;16.17;;;;;;;14.07;100.00;100090.75;6232394;23;20016;-90
2023/03/13 20:09:55;;;;;;;26.05;16.17;;;;;;;14.21;100.00;100093.34;6249623;23;20027;-88
2023/03/13 20:12:20;;;;;;;26.23;16.42;;;;;;;14.20;100.00;100091.69;6199671;23;20004;-86
2023/03/13 20:14:46;;;;;;;35.88;16.25;;;;;;;14.10;100.00;100082.38;6223375;23;20008;-86
2023/03/13 20:17:15;;;;;;;31.13;16.98;;;;;;;13.98;100.00;100082.13;6200556;23;20039;-89
2023/03/13 20:19:40;;;;;;;25.10;15.32;;;;;;;13.78;100.00;100075.81;6197581;23;20008;-90
2023/03/13 20:22:08;;;;;;;35.58;16.63;;;;;;;13.72;100.00;100077.41;6224606;23;20439;-90
2023/03/13 20:24:37;;;;;;;34.20;19.05;;;;;;;13.99;100.00;100079.25;6248953;23;20008;-88
2023/03/13 20:27:03;;;;;;;30.98;15.85;;;;;;;14.05;100.00;100079.50;6198719;23;20043;-88
2023/03/13 20:29:28;;;;;;;32.97;17.15;;;;;;;14.22;100.00;100078.16;6221815;23;20023;-86
2023/03/13 20:31:59;;;;;;;26.92;15.65;;;;;;;14.30;100.00;100078.00;6249235;23;20066;-90
2023/03/13 20:34:24;;;;;;;28.00;16.05;;;;;;;14.13;100.00;100072.16;6223362;23;20019;-87
2023/03/13 20:36:55;;;;;;;25.52;14.35;;;;;;;14.23;100.00;100066.47;6249053;23;20431;-88
2023/03/13 20:39:22;;;;;;;29.52;14.90;;;;;;;14.19;100.00;100060.69;6197782;23;20478;-89
2023/03/13 20:41:48;;;;;;;24.80;14.77;;;;;;;14.14;100.00;100071.16;6249012;23;20019;-87
2023/03/13 20:44:14;;;;;;;29.00;15.13;;;;;;;14.13;100.00;100079.31;6249514;23;20008;-90
2023/03/13 20:46:39;;;;;;;26.23;15.98;;;;;;;14.04;100.00;100093.81;6221843;23;20015;-88
2023/03/13 20:49:05;;;;;;;28.77;15.63;;;;;;;13.99;100.00;100095.22;6250334;23;20019;-89